sensor_id;sensor_type;location;lat;lon;timestamp;temperature;humidity
24682;DHT22;12802;53.390;-2.328;2023-06-14T13:39:49;27.90;93.00
24682;DHT22;12802;53.390;-2.328;2023-06-14T13:42:15;27.90;93.30
24682;DHT22;12802;53.390;-2.328;2023-06-14T13:44:40;28.00;92.00
24682;DHT22;12802;53.390;-2.328;2023-06-14T13:47:06;28.10;90.00
24682;DHT22;12802;53.390;-2.328;2023-06-14T13:49:32;27.80;90.40
24682;DHT22;12802;53.390;-2.328;2023-06-14T13:52:00;28.00;90.70
24682;DHT22;12802;53.390;-2.328;2023-06-14T13:54:26;28.30;90.90
24682;DHT22;12802;53.390;-2.328;2023-06-14T13:56:52;28.40;91.50
24682;DHT22;12802;53.390;-2.328;2023-06-14T13:59:18;28.60;91.60
24682;DHT22;12802;53.390;-2.328;2023-06-14T14:01:44;28.60;88.20
24682;DHT22;12802;53.390;-2.328;2023-06-14T14:04:10;28.40;90.00
24682;DHT22;12802;53.390;-2.328;2023-06-14T14:06:36;28.30;88.90
24682;DHT22;12802;53.390;-2.328;2023-06-14T14:09:03;28.30;88.50
24682;DHT22;12802;53.390;-2.328;2023-06-14T14:11:28;28.40;90.70
24682;DHT22;12802;53.390;-2.328;2023-06-14T14:13:58;28.70;90.30
24682;DHT22;12802;53.390;-2.328;2023-06-14T14:16:24;28.60;86.00
24682;DHT22;12802;53.390;-2.328;2023-06-14T14:18:50;28.60;88.80
24682;DHT22;12802;53.390;-2.328;2023-06-14T14:21:16;28.70;89.10
24682;DHT22;12802;53.390;-2.328;2023-06-14T14:23:42;28.60;88.30
24682;DHT22;12802;53.390;-2.328;2023-06-14T14:26:07;28.50;89.10
24682;DHT22;12802;53.390;-2.328;2023-06-14T14:28:33;28.60;88.50
24682;DHT22;12802;53.390;-2.328;2023-06-14T14:30:59;28.90;88.40
24682;DHT22;12802;53.390;-2.328;2023-06-14T14:33:25;29.00;88.80
24682;DHT22;12802;53.390;-2.328;2023-06-14T14:35:51;28.90;86.60
24682;DHT22;12802;53.390;-2.328;2023-06-14T14:38:17;29.10;89.90
24682;DHT22;12802;53.390;-2.328;2023-06-14T14:40:43;28.70;87.30
24682;DHT22;12802;53.390;-2.328;2023-06-14T14:43:10;28.90;88.90
24682;DHT22;12802;53.390;-2.328;2023-06-14T14:45:36;29.20;88.00
24682;DHT22;12802;53.390;-2.328;2023-06-14T14:48:02;29.80;88.80
24682;DHT22;12802;53.390;-2.328;2023-06-14T14:50:28;29.80;90.80
24682;DHT22;12802;53.390;-2.328;2023-06-14T14:52:54;29.50;92.40
24682;DHT22;12802;53.390;-2.328;2023-06-14T14:55:20;29.40;93.10
24682;DHT22;12802;53.390;-2.328;2023-06-14T14:57:46;29.30;92.90
24682;DHT22;12802;53.390;-2.328;2023-06-14T15:00:13;28.80;92.30
24682;DHT22;12802;53.390;-2.328;2023-06-14T15:02:39;28.80;93.20
24682;DHT22;12802;53.390;-2.328;2023-06-14T15:05:05;28.90;94.20
24682;DHT22;12802;53.390;-2.328;2023-06-14T15:07:31;29.00;94.90
24682;DHT22;12802;53.390;-2.328;2023-06-14T15:09:59;28.90;97.80
24682;DHT22;12802;53.390;-2.328;2023-06-14T15:12:25;28.30;97.20
24682;DHT22;12802;53.390;-2.328;2023-06-14T15:14:51;28.40;94.30
24682;DHT22;12802;53.390;-2.328;2023-06-14T15:51:36;27.80;95.50
24682;DHT22;12802;53.390;-2.328;2023-06-14T15:54:02;27.70;93.20
24682;DHT22;12802;53.390;-2.328;2023-06-14T15:56:28;27.60;93.90
24682;DHT22;12802;53.390;-2.328;2023-06-14T15:58:53;27.70;94.80
24682;DHT22;12802;53.390;-2.328;2023-06-14T16:01:21;28.10;95.80
24682;DHT22;12802;53.390;-2.328;2023-06-14T16:03:47;27.70;94.90
24682;DHT22;12802;53.390;-2.328;2023-06-14T16:13:31;27.00;88.50
24682;DHT22;12802;53.390;-2.328;2023-06-14T16:15:57;26.80;88.60
24682;DHT22;12802;53.390;-2.328;2023-06-14T16:18:23;26.50;90.10
24682;DHT22;12802;53.390;-2.328;2023-06-14T16:20:49;26.50;88.70
24682;DHT22;12802;53.390;-2.328;2023-06-14T16:23:15;26.40;89.30
24682;DHT22;12802;53.390;-2.328;2023-06-14T16:28:07;26.20;90.00
24682;DHT22;12802;53.390;-2.328;2023-06-14T16:35:25;26.80;88.60
24682;DHT22;12802;53.390;-2.328;2023-06-14T16:37:51;26.00;91.10
24682;DHT22;12802;53.390;-2.328;2023-06-14T16:40:18;26.10;87.90
24682;DHT22;12802;53.390;-2.328;2023-06-14T16:47:37;26.30;91.00
24682;DHT22;12802;53.390;-2.328;2023-06-14T16:50:02;26.00;89.00
24682;DHT22;12802;53.390;-2.328;2023-06-14T16:52:28;26.00;90.00
24682;DHT22;12802;53.390;-2.328;2023-06-14T16:54:54;26.00;90.20
24682;DHT22;12802;53.390;-2.328;2023-06-14T16:59:46;25.80;90.10
24682;DHT22;12802;53.390;-2.328;2023-06-14T17:04:37;25.60;90.70
24682;DHT22;12802;53.390;-2.328;2023-06-14T17:11:56;25.60;89.40
24682;DHT22;12802;53.390;-2.328;2023-06-14T17:14:22;25.40;90.20
24682;DHT22;12802;53.390;-2.328;2023-06-14T17:16:48;25.60;89.60
24682;DHT22;12802;53.390;-2.328;2023-06-14T17:21:40;25.40;90.50
24682;DHT22;12802;53.390;-2.328;2023-06-14T17:24:08;25.40;91.10
24682;DHT22;12802;53.390;-2.328;2023-06-14T17:26:34;25.30;90.80
24682;DHT22;12802;53.390;-2.328;2023-06-14T17:31:26;25.30;91.30
24682;DHT22;12802;53.390;-2.328;2023-06-14T17:38:44;25.10;89.50
24682;DHT22;12802;53.390;-2.328;2023-06-14T17:41:09;25.10;90.10
24682;DHT22;12802;53.390;-2.328;2023-06-14T17:43:36;25.00;90.50
24682;DHT22;12802;53.390;-2.328;2023-06-14T17:46:02;24.90;89.30
24682;DHT22;12802;53.390;-2.328;2023-06-14T17:48:28;24.90;89.30
24682;DHT22;12802;53.390;-2.328;2023-06-14T17:51:02;24.90;88.60
24682;DHT22;12802;53.390;-2.328;2023-06-14T17:53:28;25.00;88.10
24682;DHT22;12802;53.390;-2.328;2023-06-14T18:03:14;24.80;88.90
24682;DHT22;12802;53.390;-2.328;2023-06-14T18:05:42;24.80;89.80
24682;DHT22;12802;53.390;-2.328;2023-06-14T18:15:29;24.30;91.30
24682;DHT22;12802;53.390;-2.328;2023-06-14T18:17:55;24.50;89.60
24682;DHT22;12802;53.390;-2.328;2023-06-14T18:20:22;24.50;91.00
24682;DHT22;12802;53.390;-2.328;2023-06-14T18:27:43;24.20;91.00
24682;DHT22;12802;53.390;-2.328;2023-06-14T18:37:28;23.70;94.20
24682;DHT22;12802;53.390;-2.328;2023-06-14T18:39:54;23.80;94.70
24682;DHT22;12802;53.390;-2.328;2023-06-14T18:49:41;23.60;91.90
24682;DHT22;12802;53.390;-2.328;2023-06-14T18:52:09;23.50;93.10
24682;DHT22;12802;53.390;-2.328;2023-06-14T18:54:35;23.50;93.70
24682;DHT22;12802;53.390;-2.328;2023-06-14T18:57:01;23.50;94.60
24682;DHT22;12802;53.390;-2.328;2023-06-14T18:59:27;23.40;95.10
24682;DHT22;12802;53.390;-2.328;2023-06-14T19:01:53;23.40;95.20
24682;DHT22;12802;53.390;-2.328;2023-06-14T19:04:20;23.30;96.40
24682;DHT22;12802;53.390;-2.328;2023-06-14T19:36:03;22.70;99.90
24682;DHT22;12802;53.390;-2.328;2023-06-14T20:59:11;20.40;99.90
